Pagrindinis puslapis
METAR-TAF:

METAR-TAF

Oro uostai :

Sand Point, Aliaska, Jungtinės Amerikos Valstijos

platuma: 55-19N, ilguma: 160-31W, Aukštis: 7 m

Dabartinis oras

Ataskaita buvo paskelbta 40 minutes, ne 19:56 UTC
Ramus vėjas
Temperatūra 5°C
Drėgmė 75%
Slėgis 1011 hPa
Matomumas: 16.1 km
Išsisklaidę debesys ne aukštis 3900 ft
Su prošvaistėmis ne aukštis 5000 ft

METAR: PASD 281956Z 00000KT 10SM SCT039 BKN050 05/01 A2986 RMK AO2 SLP114 T00500011 PNO $

Laikas: 12:36 (20:36 UTC)

Prognozė

Ataskaita buvo paskelbta 3 valandos ir 11 minutes, ne 17:25 UTC
Prognozė galioja nuo 28 metu 18 UTC su 29 metu 18 UTC
Vėjas 4 kt nuo kintamojo kryptimis
Matomumas: 10 km
Su prošvaistėmis ne aukštis 5000 ft
Nuo 29 metu 1500 UTC
Vėjas 5 kt iš Pietų/Pietryčių
Matomumas: 10 km
Su prošvaistėmis ne aukštis 3000 ft
Apsiniaukę ne aukštis 4000 ft
Liūtis kaimynystėje

TAF: PASD 281725Z 2818/2918 VRB04KT P6SM BKN050 FM291500 15005KT P6SM VCSH BKN030 OVC040 AMD LTD TO CLD VIS AND WIND

Orai ataskaitas ir orų prognozės (METAR, TAF).

turimą stotys yra geltonos ir raudonos taškus žemėlapyje.

Perkelti pele per norėdami pamatyti stoties vardą.

Tada spustelėkite, norėdami matyti oro stebėjimo ir prognozės.

Norėdami pakeisti žemėlapį: spustelėkite ant žalios mygtukų su juodo kryžiaus žemyn,; žalią mygtuką su brūkšneliu, jei norite nutolinti; arba žalių rodyklių gretimoms žemėlapius.


METAR-TAF: